sensor_id;sensor_type;location;lat;lon;timestamp;P1;durP1;ratioP1;P2;durP2;ratioP2
36995;SDS011;22905;50.340;10.776;2023-08-17T00:03:11;6.10;;;2.83;;
36995;SDS011;22905;50.340;10.776;2023-08-17T00:14:08;9.07;;;2.63;;
36995;SDS011;22905;50.340;10.776;2023-08-17T00:19:10;6.60;;;2.78;;
36995;SDS011;22905;50.340;10.776;2023-08-17T00:24:10;8.90;;;2.30;;
36995;SDS011;22905;50.340;10.776;2023-08-17T00:29:11;5.20;;;3.15;;
36995;SDS011;22905;50.340;10.776;2023-08-17T00:34:11;3.20;;;2.30;;
36995;SDS011;22905;50.340;10.776;2023-08-17T00:39:11;4.37;;;2.57;;
36995;SDS011;22905;50.340;10.776;2023-08-17T00:44:12;8.60;;;2.25;;
36995;SDS011;22905;50.340;10.776;2023-08-17T00:49:12;4.22;;;1.98;;
36995;SDS011;22905;50.340;10.776;2023-08-17T00:54:13;5.93;;;3.03;;
36995;SDS011;22905;50.340;10.776;2023-08-17T00:59:13;6.33;;;3.13;;
36995;SDS011;22905;50.340;10.776;2023-08-17T01:04:13;14.82;;;4.43;;
36995;SDS011;22905;50.340;10.776;2023-08-17T01:09:14;11.57;;;5.03;;
36995;SDS011;22905;50.340;10.776;2023-08-17T01:14:17;26.63;;;4.63;;
36995;SDS011;22905;50.340;10.776;2023-08-17T01:19:24;10.50;;;4.68;;
36995;SDS011;22905;50.340;10.776;2023-08-17T01:24:26;10.98;;;5.05;;
36995;SDS011;22905;50.340;10.776;2023-08-17T01:29:27;8.43;;;3.50;;
36995;SDS011;22905;50.340;10.776;2023-08-17T01:34:27;6.10;;;3.13;;
36995;SDS011;22905;50.340;10.776;2023-08-17T01:39:39;7.82;;;3.88;;
36995;SDS011;22905;50.340;10.776;2023-08-17T01:44:43;8.10;;;3.33;;
36995;SDS011;22905;50.340;10.776;2023-08-17T01:49:43;8.38;;;3.72;;
36995;SDS011;22905;50.340;10.776;2023-08-17T01:54:43;11.25;;;3.95;;
36995;SDS011;22905;50.340;10.776;2023-08-17T01:59:44;9.73;;;4.55;;
36995;SDS011;22905;50.340;10.776;2023-08-17T02:04:44;9.18;;;3.60;;
36995;SDS011;22905;50.340;10.776;2023-08-17T02:09:44;9.73;;;3.60;;
36995;SDS011;22905;50.340;10.776;2023-08-17T02:14:45;5.45;;;3.38;;
36995;SDS011;22905;50.340;10.776;2023-08-17T02:19:45;5.72;;;3.50;;
36995;SDS011;22905;50.340;10.776;2023-08-17T02:24:47;4.30;;;3.10;;
36995;SDS011;22905;50.340;10.776;2023-08-17T02:29:47;4.32;;;3.20;;
36995;SDS011;22905;50.340;10.776;2023-08-17T02:34:48;5.03;;;2.67;;
36995;SDS011;22905;50.340;10.776;2023-08-17T02:39:48;6.20;;;2.90;;
36995;SDS011;22905;50.340;10.776;2023-08-17T02:44:48;4.13;;;2.57;;
36995;SDS011;22905;50.340;10.776;2023-08-17T02:49:49;3.27;;;2.83;;
36995;SDS011;22905;50.340;10.776;2023-08-17T02:54:49;3.20;;;2.73;;
36995;SDS011;22905;50.340;10.776;2023-08-17T02:59:50;9.23;;;3.50;;
36995;SDS011;22905;50.340;10.776;2023-08-17T03:04:50;3.35;;;2.42;;
36995;SDS011;22905;50.340;10.776;2023-08-17T03:09:50;4.75;;;3.40;;
36995;SDS011;22905;50.340;10.776;2023-08-17T03:14:50;9.80;;;3.45;;
36995;SDS011;22905;50.340;10.776;2023-08-17T03:19:51;5.80;;;3.88;;
36995;SDS011;22905;50.340;10.776;2023-08-17T03:24:51;4.90;;;3.30;;
36995;SDS011;22905;50.340;10.776;2023-08-17T03:29:51;7.97;;;4.68;;
36995;SDS011;22905;50.340;10.776;2023-08-17T03:34:52;6.10;;;3.72;;
36995;SDS011;22905;50.340;10.776;2023-08-17T03:39:52;8.18;;;4.15;;
36995;SDS011;22905;50.340;10.776;2023-08-17T03:44:52;8.77;;;5.13;;
36995;SDS011;22905;50.340;10.776;2023-08-17T03:49:53;5.80;;;3.60;;
36995;SDS011;22905;50.340;10.776;2023-08-17T03:54:53;7.07;;;4.30;;
36995;SDS011;22905;50.340;10.776;2023-08-17T03:59:53;8.40;;;3.83;;
36995;SDS011;22905;50.340;10.776;2023-08-17T04:04:54;4.57;;;3.80;;
36995;SDS011;22905;50.340;10.776;2023-08-17T04:09:54;5.82;;;4.13;;
36995;SDS011;22905;50.340;10.776;2023-08-17T04:14:54;7.87;;;4.37;;
36995;SDS011;22905;50.340;10.776;2023-08-17T04:19:54;8.73;;;4.63;;
36995;SDS011;22905;50.340;10.776;2023-08-17T04:24:55;8.32;;;4.82;;
36995;SDS011;22905;50.340;10.776;2023-08-17T04:29:55;6.90;;;4.82;;
36995;SDS011;22905;50.340;10.776;2023-08-17T04:34:56;8.15;;;5.53;;
36995;SDS011;22905;50.340;10.776;2023-08-17T04:39:57;12.73;;;5.72;;
36995;SDS011;22905;50.340;10.776;2023-08-17T04:44:57;6.63;;;4.25;;
36995;SDS011;22905;50.340;10.776;2023-08-17T04:49:57;6.15;;;4.55;;
36995;SDS011;22905;50.340;10.776;2023-08-17T04:54:58;9.83;;;5.23;;
36995;SDS011;22905;50.340;10.776;2023-08-17T04:59:58;7.63;;;5.03;;
36995;SDS011;22905;50.340;10.776;2023-08-17T05:04:58;7.82;;;5.05;;
36995;SDS011;22905;50.340;10.776;2023-08-17T05:09:59;6.07;;;5.28;;
36995;SDS011;22905;50.340;10.776;2023-08-17T05:15:00;8.40;;;4.70;;
36995;SDS011;22905;50.340;10.776;2023-08-17T05:20:00;8.57;;;5.07;;
36995;SDS011;22905;50.340;10.776;2023-08-17T05:25:04;8.05;;;4.63;;
36995;SDS011;22905;50.340;10.776;2023-08-17T05:30:05;7.30;;;4.10;;
36995;SDS011;22905;50.340;10.776;2023-08-17T05:35:06;9.90;;;4.80;;
36995;SDS011;22905;50.340;10.776;2023-08-17T05:40:07;7.78;;;4.72;;
36995;SDS011;22905;50.340;10.776;2023-08-17T05:45:09;5.53;;;4.33;;
36995;SDS011;22905;50.340;10.776;2023-08-17T05:50:09;9.33;;;4.77;;
36995;SDS011;22905;50.340;10.776;2023-08-17T05:55:10;6.70;;;4.20;;
36995;SDS011;22905;50.340;10.776;2023-08-17T06:00:10;5.82;;;3.92;;
36995;SDS011;22905;50.340;10.776;2023-08-17T06:05:12;4.70;;;4.20;;
36995;SDS011;22905;50.340;10.776;2023-08-17T06:10:12;6.90;;;4.23;;
36995;SDS011;22905;50.340;10.776;2023-08-17T06:15:13;4.60;;;3.77;;
36995;SDS011;22905;50.340;10.776;2023-08-17T06:20:13;5.80;;;4.15;;
36995;SDS011;22905;50.340;10.776;2023-08-17T06:25:14;5.95;;;4.05;;
36995;SDS011;22905;50.340;10.776;2023-08-17T06:30:14;7.40;;;4.40;;
36995;SDS011;22905;50.340;10.776;2023-08-17T06:35:15;5.45;;;3.90;;
36995;SDS011;22905;50.340;10.776;2023-08-17T06:40:16;6.57;;;4.53;;
36995;SDS011;22905;50.340;10.776;2023-08-17T06:45:16;7.45;;;4.50;;
36995;SDS011;22905;50.340;10.776;2023-08-17T06:50:18;7.57;;;4.32;;
36995;SDS011;22905;50.340;10.776;2023-08-17T06:55:18;8.20;;;6.13;;
36995;SDS011;22905;50.340;10.776;2023-08-17T07:00:19;9.10;;;6.10;;
36995;SDS011;22905;50.340;10.776;2023-08-17T07:05:20;17.17;;;8.23;;
36995;SDS011;22905;50.340;10.776;2023-08-17T07:10:20;13.70;;;8.87;;
36995;SDS011;22905;50.340;10.776;2023-08-17T07:15:21;12.43;;;9.70;;
36995;SDS011;22905;50.340;10.776;2023-08-17T07:20:21;15.63;;;12.38;;
36995;SDS011;22905;50.340;10.776;2023-08-17T07:25:21;16.97;;;15.13;;
36995;SDS011;22905;50.340;10.776;2023-08-17T07:30:22;21.33;;;14.73;;
36995;SDS011;22905;50.340;10.776;2023-08-17T07:35:22;18.93;;;16.47;;
36995;SDS011;22905;50.340;10.776;2023-08-17T07:40:22;20.48;;;16.38;;
36995;SDS011;22905;50.340;10.776;2023-08-17T07:45:23;35.80;;;16.93;;
36995;SDS011;22905;50.340;10.776;2023-08-17T07:50:23;23.27;;;16.70;;
36995;SDS011;22905;50.340;10.776;2023-08-17T07:55:23;21.23;;;16.73;;
36995;SDS011;22905;50.340;10.776;2023-08-17T08:00:24;19.50;;;15.25;;
36995;SDS011;22905;50.340;10.776;2023-08-17T08:05:25;24.70;;;16.40;;
36995;SDS011;22905;50.340;10.776;2023-08-17T08:10:26;20.03;;;16.70;;
36995;SDS011;22905;50.340;10.776;2023-08-17T08:15:27;19.67;;;16.17;;
36995;SDS011;22905;50.340;10.776;2023-08-17T08:20:27;21.43;;;17.70;;
36995;SDS011;22905;50.340;10.776;2023-08-17T08:25:28;19.10;;;15.85;;
36995;SDS011;22905;50.340;10.776;2023-08-17T08:30:28;24.10;;;20.77;;
36995;SDS011;22905;50.340;10.776;2023-08-17T08:35:28;22.83;;;16.48;;
36995;SDS011;22905;50.340;10.776;2023-08-17T08:40:29;20.97;;;15.77;;
36995;SDS011;22905;50.340;10.776;2023-08-17T08:45:30;18.30;;;13.55;;
36995;SDS011;22905;50.340;10.776;2023-08-17T08:50:31;15.57;;;13.67;;
36995;SDS011;22905;50.340;10.776;2023-08-17T08:55:37;16.77;;;13.43;;
36995;SDS011;22905;50.340;10.776;2023-08-17T09:00:37;17.95;;;13.18;;
36995;SDS011;22905;50.340;10.776;2023-08-17T09:05:38;20.53;;;13.87;;
36995;SDS011;22905;50.340;10.776;2023-08-17T09:10:39;16.03;;;13.83;;
36995;SDS011;22905;50.340;10.776;2023-08-17T09:15:41;24.17;;;14.93;;
36995;SDS011;22905;50.340;10.776;2023-08-17T09:20:42;15.37;;;13.77;;
36995;SDS011;22905;50.340;10.776;2023-08-17T09:25:45;15.90;;;13.10;;
36995;SDS011;22905;50.340;10.776;2023-08-17T09:30:57;15.83;;;13.20;;
36995;SDS011;22905;50.340;10.776;2023-08-17T09:35:58;15.90;;;12.07;;
36995;SDS011;22905;50.340;10.776;2023-08-17T09:40:59;17.15;;;13.10;;
36995;SDS011;22905;50.340;10.776;2023-08-17T09:46:00;18.53;;;11.87;;
36995;SDS011;22905;50.340;10.776;2023-08-17T09:51:02;12.98;;;11.30;;
36995;SDS011;22905;50.340;10.776;2023-08-17T09:56:03;14.30;;;11.47;;
36995;SDS011;22905;50.340;10.776;2023-08-17T10:01:11;16.52;;;11.57;;
36995;SDS011;22905;50.340;10.776;2023-08-17T10:06:13;16.70;;;12.20;;
36995;SDS011;22905;50.340;10.776;2023-08-17T10:11:16;14.35;;;10.57;;
36995;SDS011;22905;50.340;10.776;2023-08-17T10:21:36;12.38;;;9.68;;
36995;SDS011;22905;50.340;10.776;2023-08-17T10:26:37;15.07;;;11.18;;
36995;SDS011;22905;50.340;10.776;2023-08-17T10:31:38;12.43;;;10.73;;
36995;SDS011;22905;50.340;10.776;2023-08-17T10:36:38;15.80;;;9.55;;
36995;SDS011;22905;50.340;10.776;2023-08-17T10:41:46;15.20;;;10.65;;
36995;SDS011;22905;50.340;10.776;2023-08-17T10:46:47;10.35;;;9.27;;
36995;SDS011;22905;50.340;10.776;2023-08-17T10:52:03;11.37;;;8.33;;
36995;SDS011;22905;50.340;10.776;2023-08-17T10:57:24;10.75;;;9.20;;
36995;SDS011;22905;50.340;10.776;2023-08-17T11:02:25;10.43;;;9.15;;
36995;SDS011;22905;50.340;10.776;2023-08-17T11:07:25;12.67;;;9.97;;
36995;SDS011;22905;50.340;10.776;2023-08-17T11:12:28;11.23;;;9.60;;
36995;SDS011;22905;50.340;10.776;2023-08-17T11:22:29;9.95;;;8.60;;
36995;SDS011;22905;50.340;10.776;2023-08-17T11:27:30;10.80;;;8.50;;
36995;SDS011;22905;50.340;10.776;2023-08-17T11:32:30;10.03;;;8.17;;
36995;SDS011;22905;50.340;10.776;2023-08-17T11:37:31;9.20;;;8.23;;
36995;SDS011;22905;50.340;10.776;2023-08-17T11:42:31;8.80;;;7.90;;
36995;SDS011;22905;50.340;10.776;2023-08-17T11:47:32;9.37;;;8.10;;
36995;SDS011;22905;50.340;10.776;2023-08-17T11:52:32;9.43;;;8.45;;
36995;SDS011;22905;50.340;10.776;2023-08-17T11:57:33;11.37;;;8.97;;
36995;SDS011;22905;50.340;10.776;2023-08-17T12:02:33;10.23;;;8.38;;
36995;SDS011;22905;50.340;10.776;2023-08-17T12:07:37;10.80;;;7.88;;
36995;SDS011;22905;50.340;10.776;2023-08-17T12:12:37;10.40;;;7.95;;
36995;SDS011;22905;50.340;10.776;2023-08-17T12:22:46;8.93;;;7.97;;
36995;SDS011;22905;50.340;10.776;2023-08-17T12:27:47;10.63;;;8.05;;
36995;SDS011;22905;50.340;10.776;2023-08-17T12:37:48;8.27;;;7.47;;
36995;SDS011;22905;50.340;10.776;2023-08-17T12:42:49;9.23;;;7.97;;
36995;SDS011;22905;50.340;10.776;2023-08-17T12:47:49;9.03;;;8.00;;
36995;SDS011;22905;50.340;10.776;2023-08-17T12:52:50;9.95;;;7.50;;
36995;SDS011;22905;50.340;10.776;2023-08-17T13:02:51;9.85;;;7.57;;
36995;SDS011;22905;50.340;10.776;2023-08-17T13:07:52;13.43;;;7.95;;
36995;SDS011;22905;50.340;10.776;2023-08-17T13:12:52;8.07;;;7.30;;
36995;SDS011;22905;50.340;10.776;2023-08-17T13:17:59;9.23;;;7.78;;
36995;SDS011;22905;50.340;10.776;2023-08-17T13:22:59;9.57;;;8.43;;
36995;SDS011;22905;50.340;10.776;2023-08-17T13:28:00;8.85;;;7.95;;
36995;SDS011;22905;50.340;10.776;2023-08-17T13:33:00;9.50;;;8.50;;
36995;SDS011;22905;50.340;10.776;2023-08-17T13:38:01;10.47;;;8.63;;
36995;SDS011;22905;50.340;10.776;2023-08-17T13:43:04;11.18;;;8.50;;
36995;SDS011;22905;50.340;10.776;2023-08-17T13:48:08;11.68;;;8.98;;
36995;SDS011;22905;50.340;10.776;2023-08-17T13:53:08;9.30;;;8.37;;
36995;SDS011;22905;50.340;10.776;2023-08-17T13:58:09;9.37;;;7.97;;
36995;SDS011;22905;50.340;10.776;2023-08-17T14:03:10;10.27;;;8.18;;
36995;SDS011;22905;50.340;10.776;2023-08-17T14:08:10;12.43;;;9.20;;
36995;SDS011;22905;50.340;10.776;2023-08-17T14:13:11;9.57;;;7.88;;
36995;SDS011;22905;50.340;10.776;2023-08-17T14:18:11;9.70;;;7.32;;
36995;SDS011;22905;50.340;10.776;2023-08-17T14:23:12;11.90;;;7.28;;
36995;SDS011;22905;50.340;10.776;2023-08-17T14:28:12;10.55;;;7.50;;
36995;SDS011;22905;50.340;10.776;2023-08-17T14:33:12;8.27;;;6.78;;
36995;SDS011;22905;50.340;10.776;2023-08-17T14:38:14;9.55;;;7.57;;
36995;SDS011;22905;50.340;10.776;2023-08-17T14:43:14;10.13;;;7.70;;
36995;SDS011;22905;50.340;10.776;2023-08-17T14:48:15;8.03;;;7.13;;
36995;SDS011;22905;50.340;10.776;2023-08-17T14:53:15;12.57;;;7.30;;
36995;SDS011;22905;50.340;10.776;2023-08-17T14:58:15;10.00;;;6.83;;
36995;SDS011;22905;50.340;10.776;2023-08-17T15:03:16;9.13;;;6.70;;
36995;SDS011;22905;50.340;10.776;2023-08-17T15:08:17;8.40;;;6.82;;
36995;SDS011;22905;50.340;10.776;2023-08-17T15:13:17;8.05;;;7.03;;
36995;SDS011;22905;50.340;10.776;2023-08-17T15:18:18;8.30;;;6.90;;
36995;SDS011;22905;50.340;10.776;2023-08-17T15:23:18;9.57;;;7.27;;
36995;SDS011;22905;50.340;10.776;2023-08-17T15:28:18;8.23;;;7.50;;
36995;SDS011;22905;50.340;10.776;2023-08-17T15:33:19;10.60;;;6.73;;
36995;SDS011;22905;50.340;10.776;2023-08-17T15:38:19;10.90;;;7.18;;
36995;SDS011;22905;50.340;10.776;2023-08-17T15:43:19;8.98;;;6.78;;
36995;SDS011;22905;50.340;10.776;2023-08-17T15:48:20;9.90;;;6.80;;
36995;SDS011;22905;50.340;10.776;2023-08-17T15:53:20;10.87;;;6.73;;
36995;SDS011;22905;50.340;10.776;2023-08-17T15:58:21;14.05;;;7.47;;
36995;SDS011;22905;50.340;10.776;2023-08-17T16:03:21;9.13;;;7.50;;
36995;SDS011;22905;50.340;10.776;2023-08-17T16:08:22;10.90;;;7.63;;
36995;SDS011;22905;50.340;10.776;2023-08-17T16:13:22;10.43;;;7.80;;
36995;SDS011;22905;50.340;10.776;2023-08-17T16:18:23;13.73;;;8.87;;
36995;SDS011;22905;50.340;10.776;2023-08-17T16:23:23;13.93;;;10.93;;
36995;SDS011;22905;50.340;10.776;2023-08-17T16:28:23;12.30;;;9.97;;
36995;SDS011;22905;50.340;10.776;2023-08-17T16:33:24;13.07;;;10.10;;
36995;SDS011;22905;50.340;10.776;2023-08-17T16:38:24;13.77;;;10.73;;
36995;SDS011;22905;50.340;10.776;2023-08-17T16:43:24;13.53;;;11.07;;
36995;SDS011;22905;50.340;10.776;2023-08-17T16:48:25;12.93;;;11.63;;
36995;SDS011;22905;50.340;10.776;2023-08-17T16:53:26;12.97;;;11.63;;
36995;SDS011;22905;50.340;10.776;2023-08-17T16:58:26;13.77;;;11.93;;
36995;SDS011;22905;50.340;10.776;2023-08-17T17:03:26;15.88;;;11.48;;
36995;SDS011;22905;50.340;10.776;2023-08-17T17:08:27;15.80;;;9.97;;
36995;SDS011;22905;50.340;10.776;2023-08-17T17:13:27;16.27;;;11.35;;
36995;SDS011;22905;50.340;10.776;2023-08-17T17:18:27;13.82;;;11.00;;
36995;SDS011;22905;50.340;10.776;2023-08-17T17:23:27;12.95;;;10.63;;
36995;SDS011;22905;50.340;10.776;2023-08-17T17:28:28;14.93;;;10.85;;
36995;SDS011;22905;50.340;10.776;2023-08-17T17:33:28;13.00;;;10.68;;
36995;SDS011;22905;50.340;10.776;2023-08-17T17:38:28;11.10;;;7.40;;
36995;SDS011;22905;50.340;10.776;2023-08-17T17:43:29;7.45;;;5.97;;
36995;SDS011;22905;50.340;10.776;2023-08-17T17:48:29;13.70;;;5.57;;
36995;SDS011;22905;50.340;10.776;2023-08-17T17:53:30;11.07;;;5.95;;
36995;SDS011;22905;50.340;10.776;2023-08-17T17:58:30;7.47;;;5.72;;
36995;SDS011;22905;50.340;10.776;2023-08-17T18:03:32;15.20;;;7.00;;
36995;SDS011;22905;50.340;10.776;2023-08-17T18:08:32;12.47;;;6.43;;
36995;SDS011;22905;50.340;10.776;2023-08-17T18:13:33;9.90;;;7.27;;
36995;SDS011;22905;50.340;10.776;2023-08-17T18:18:34;10.55;;;6.40;;
36995;SDS011;22905;50.340;10.776;2023-08-17T18:23:36;11.82;;;7.00;;
36995;SDS011;22905;50.340;10.776;2023-08-17T18:28:37;8.40;;;6.75;;
36995;SDS011;22905;50.340;10.776;2023-08-17T18:33:37;8.47;;;6.10;;
36995;SDS011;22905;50.340;10.776;2023-08-17T18:38:37;11.90;;;6.55;;
36995;SDS011;22905;50.340;10.776;2023-08-17T18:43:38;9.90;;;6.25;;
36995;SDS011;22905;50.340;10.776;2023-08-17T18:48:38;8.20;;;6.20;;
36995;SDS011;22905;50.340;10.776;2023-08-17T18:53:38;9.38;;;6.28;;
36995;SDS011;22905;50.340;10.776;2023-08-17T18:58:39;10.13;;;6.35;;
36995;SDS011;22905;50.340;10.776;2023-08-17T19:03:39;9.02;;;6.13;;
36995;SDS011;22905;50.340;10.776;2023-08-17T19:08:39;13.95;;;7.30;;
36995;SDS011;22905;50.340;10.776;2023-08-17T19:13:40;8.32;;;6.40;;
36995;SDS011;22905;50.340;10.776;2023-08-17T19:18:41;11.57;;;6.38;;
36995;SDS011;22905;50.340;10.776;2023-08-17T19:23:41;12.70;;;6.90;;
36995;SDS011;22905;50.340;10.776;2023-08-17T19:28:41;12.10;;;7.87;;
36995;SDS011;22905;50.340;10.776;2023-08-17T19:33:42;11.83;;;7.03;;
36995;SDS011;22905;50.340;10.776;2023-08-17T19:38:42;11.93;;;7.47;;
36995;SDS011;22905;50.340;10.776;2023-08-17T19:43:42;37.40;;;25.07;;
36995;SDS011;22905;50.340;10.776;2023-08-17T19:48:43;12.30;;;7.28;;
36995;SDS011;22905;50.340;10.776;2023-08-17T19:53:46;13.25;;;7.25;;
36995;SDS011;22905;50.340;10.776;2023-08-17T19:58:46;13.45;;;7.28;;
36995;SDS011;22905;50.340;10.776;2023-08-17T20:03:46;15.00;;;7.37;;
36995;SDS011;22905;50.340;10.776;2023-08-17T20:08:49;11.25;;;6.95;;
36995;SDS011;22905;50.340;10.776;2023-08-17T20:13:50;11.18;;;7.32;;
36995;SDS011;22905;50.340;10.776;2023-08-17T20:18:50;9.55;;;6.80;;
36995;SDS011;22905;50.340;10.776;2023-08-17T20:23:50;11.30;;;6.83;;
36995;SDS011;22905;50.340;10.776;2023-08-17T20:28:51;14.27;;;7.40;;
36995;SDS011;22905;50.340;10.776;2023-08-17T20:33:51;9.88;;;6.22;;
36995;SDS011;22905;50.340;10.776;2023-08-17T20:38:52;10.70;;;7.32;;
36995;SDS011;22905;50.340;10.776;2023-08-17T20:43:52;11.85;;;6.63;;
36995;SDS011;22905;50.340;10.776;2023-08-17T20:48:52;9.80;;;6.97;;
36995;SDS011;22905;50.340;10.776;2023-08-17T20:53:54;10.05;;;7.50;;
36995;SDS011;22905;50.340;10.776;2023-08-17T20:59:00;23.63;;;6.88;;
36995;SDS011;22905;50.340;10.776;2023-08-17T21:04:00;7.82;;;6.07;;
36995;SDS011;22905;50.340;10.776;2023-08-17T21:09:00;10.10;;;7.07;;
36995;SDS011;22905;50.340;10.776;2023-08-17T21:14:01;13.03;;;7.43;;
36995;SDS011;22905;50.340;10.776;2023-08-17T21:19:02;10.93;;;7.40;;
36995;SDS011;22905;50.340;10.776;2023-08-17T21:24:02;9.27;;;7.22;;
36995;SDS011;22905;50.340;10.776;2023-08-17T21:29:03;10.80;;;7.28;;
36995;SDS011;22905;50.340;10.776;2023-08-17T21:34:03;13.35;;;7.90;;
36995;SDS011;22905;50.340;10.776;2023-08-17T21:39:15;9.77;;;7.57;;
36995;SDS011;22905;50.340;10.776;2023-08-17T21:44:18;9.90;;;7.53;;
36995;SDS011;22905;50.340;10.776;2023-08-17T21:49:24;12.13;;;7.95;;
36995;SDS011;22905;50.340;10.776;2023-08-17T21:54:24;7.57;;;6.83;;
36995;SDS011;22905;50.340;10.776;2023-08-17T21:59:24;14.45;;;7.90;;
36995;SDS011;22905;50.340;10.776;2023-08-17T22:04:25;8.83;;;6.37;;
36995;SDS011;22905;50.340;10.776;2023-08-17T22:09:25;8.93;;;7.20;;
36995;SDS011;22905;50.340;10.776;2023-08-17T22:14:25;10.02;;;7.43;;
36995;SDS011;22905;50.340;10.776;2023-08-17T22:19:26;10.50;;;7.93;;
36995;SDS011;22905;50.340;10.776;2023-08-17T22:24:26;14.90;;;8.47;;
36995;SDS011;22905;50.340;10.776;2023-08-17T22:29:26;11.17;;;6.70;;
36995;SDS011;22905;50.340;10.776;2023-08-17T22:34:27;13.03;;;8.20;;
36995;SDS011;22905;50.340;10.776;2023-08-17T22:39:27;12.48;;;8.10;;
36995;SDS011;22905;50.340;10.776;2023-08-17T22:44:27;11.80;;;7.07;;
36995;SDS011;22905;50.340;10.776;2023-08-17T22:49:28;14.15;;;7.15;;
36995;SDS011;22905;50.340;10.776;2023-08-17T22:54:28;9.37;;;6.53;;
36995;SDS011;22905;50.340;10.776;2023-08-17T22:59:28;8.55;;;6.15;;
36995;SDS011;22905;50.340;10.776;2023-08-17T23:04:29;9.60;;;6.53;;
36995;SDS011;22905;50.340;10.776;2023-08-17T23:09:29;8.45;;;5.95;;
36995;SDS011;22905;50.340;10.776;2023-08-17T23:14:29;10.38;;;6.28;;
36995;SDS011;22905;50.340;10.776;2023-08-17T23:19:30;9.65;;;6.03;;
36995;SDS011;22905;50.340;10.776;2023-08-17T23:24:30;8.17;;;6.27;;
36995;SDS011;22905;50.340;10.776;2023-08-17T23:29:31;7.80;;;5.40;;
36995;SDS011;22905;50.340;10.776;2023-08-17T23:34:35;11.10;;;6.53;;
36995;SDS011;22905;50.340;10.776;2023-08-17T23:39:35;11.10;;;7.47;;
36995;SDS011;22905;50.340;10.776;2023-08-17T23:44:35;9.95;;;8.13;;
36995;SDS011;22905;50.340;10.776;2023-08-17T23:49:36;13.60;;;9.13;;
36995;SDS011;22905;50.340;10.776;2023-08-17T23:54:36;12.60;;;8.63;;
36995;SDS011;22905;50.340;10.776;2023-08-17T23:59:36;12.63;;;8.45;;
